createdAt,value
2016-09-28T00:00:08.366Z,0.00
2016-09-28T00:01:08.875Z,0.00
2016-09-28T00:02:09.409Z,0.00
2016-09-28T00:03:09.898Z,0.00
2016-09-28T00:04:10.409Z,0.00
2016-09-28T00:05:10.923Z,0.00
2016-09-28T00:06:11.435Z,0.00
2016-09-28T00:07:11.948Z,0.00
2016-09-28T00:08:12.465Z,0.00
2016-09-28T00:09:12.970Z,0.00
2016-09-28T00:10:13.783Z,0.00
2016-09-28T00:11:13.994Z,0.00
2016-09-28T00:12:14.503Z,0.00
2016-09-28T00:13:16.664Z,0.00
2016-09-28T00:14:15.525Z,0.00
2016-09-28T00:15:16.040Z,0.00
2016-09-28T00:16:16.596Z,0.00
2016-09-28T00:17:17.086Z,0.00
2016-09-28T00:18:17.582Z,0.00
2016-09-28T00:19:18.094Z,0.00
2016-09-28T00:20:18.615Z,0.00
2016-09-28T00:21:19.129Z,0.00
2016-09-28T00:22:19.646Z,0.00
2016-09-28T00:23:20.163Z,0.00
2016-09-28T00:24:20.682Z,0.00
2016-09-28T00:25:21.342Z,0.00
2016-09-28T00:26:21.724Z,0.00
2016-09-28T00:27:22.208Z,0.00
2016-09-28T00:28:22.722Z,0.00
2016-09-28T00:29:23.231Z,0.00
2016-09-28T00:30:23.745Z,0.00
2016-09-28T00:31:24.257Z,0.00
2016-09-28T00:32:24.770Z,0.00
2016-09-28T00:33:25.279Z,0.00
2016-09-28T00:34:25.792Z,0.00
2016-09-28T00:35:26.458Z,0.00
2016-09-28T00:36:26.818Z,0.00
2016-09-28T00:37:27.329Z,0.00
2016-09-28T00:38:27.840Z,0.00
2016-09-28T00:39:28.351Z,0.00
2016-09-28T00:40:28.870Z,0.00
2016-09-28T00:41:29.368Z,0.00
2016-09-28T00:42:29.882Z,0.00
2016-09-28T00:43:30.394Z,0.00
2016-09-28T00:44:31.056Z,0.00
2016-09-28T00:45:31.574Z,0.00
2016-09-28T00:46:31.932Z,0.00
2016-09-28T00:47:32.442Z,0.00
2016-09-28T00:48:32.954Z,0.00
2016-09-28T00:49:33.468Z,0.00
2016-09-28T00:50:33.984Z,0.00
2016-09-28T00:51:34.499Z,0.00
2016-09-28T00:52:35.002Z,0.00
2016-09-28T00:53:35.665Z,0.00
2016-09-28T00:54:36.041Z,0.00
2016-09-28T00:55:36.540Z,0.00
2016-09-28T00:56:37.058Z,0.00
2016-09-28T00:57:37.565Z,0.00
2016-09-28T00:58:38.087Z,0.00
2016-09-28T00:59:38.637Z,0.00
2016-09-28T01:00:39.115Z,0.00
2016-09-28T01:01:39.624Z,0.00
2016-09-28T01:02:40.136Z,0.00
2016-09-28T01:03:40.802Z,0.00
2016-09-28T01:04:41.157Z,0.00
2016-09-28T01:05:41.691Z,0.00
2016-09-28T01:06:42.177Z,0.00
2016-09-28T01:07:42.690Z,0.00
2016-09-28T01:08:43.201Z,0.00
2016-09-28T01:09:43.715Z,0.00
2016-09-28T01:10:44.375Z,0.00
2016-09-28T01:11:44.737Z,0.00
2016-09-28T01:12:45.255Z,0.00
2016-09-28T01:13:45.762Z,0.00
2016-09-28T01:14:46.279Z,0.00
2016-09-28T01:15:46.792Z,0.00
2016-09-28T01:16:47.308Z,0.00
2016-09-28T01:17:47.971Z,0.00
2016-09-28T01:18:48.329Z,0.00
2016-09-28T01:19:48.841Z,0.00
2016-09-28T01:20:49.349Z,0.00
2016-09-28T01:21:49.860Z,0.00
2016-09-28T01:22:50.374Z,0.00
2016-09-28T01:23:50.882Z,0.00
2016-09-28T01:24:51.394Z,0.00
2016-09-28T01:25:51.901Z,0.00
2016-09-28T01:26:52.411Z,0.00
2016-09-28T01:27:53.074Z,0.00
2016-09-28T01:28:53.454Z,0.00
2016-09-28T01:29:53.973Z,0.00
2016-09-28T01:30:56.255Z,0.00
2016-09-28T01:31:54.962Z,0.00
2016-09-28T01:32:55.474Z,0.00
2016-09-28T01:33:55.986Z,0.00
2016-09-28T01:34:56.503Z,0.00
2016-09-28T01:35:57.017Z,0.00
2016-09-28T01:36:57.689Z,0.00
2016-09-28T01:37:58.056Z,0.00
2016-09-28T01:38:58.570Z,0.00
2016-09-28T01:39:59.084Z,0.00
2016-09-28T01:40:59.600Z,0.00
2016-09-28T01:42:00.124Z,0.00
2016-09-28T01:43:00.774Z,0.00
2016-09-28T01:44:01.148Z,0.00
2016-09-28T01:45:01.645Z,0.00
2016-09-28T01:46:02.155Z,0.00
2016-09-28T01:47:02.667Z,0.00
2016-09-28T01:48:03.329Z,0.00
2016-09-28T01:49:03.688Z,0.00
2016-09-28T01:50:04.196Z,0.00
2016-09-28T01:51:04.710Z,0.00
2016-09-28T01:52:05.378Z,0.00
2016-09-28T01:53:05.735Z,0.00
2016-09-28T01:54:06.241Z,0.00
2016-09-28T01:55:06.751Z,0.00
2016-09-28T01:56:07.264Z,0.00
2016-09-28T01:57:07.928Z,0.00
2016-09-28T01:58:08.290Z,0.00
2016-09-28T01:59:08.797Z,0.00
2016-09-28T02:00:09.308Z,0.00
2016-09-28T02:01:09.853Z,0.00
2016-09-28T02:02:10.339Z,0.00
2016-09-28T02:03:11.001Z,0.00
2016-09-28T02:04:11.355Z,0.00
2016-09-28T02:05:11.869Z,0.00
2016-09-28T02:06:12.531Z,0.00
2016-09-28T02:07:12.894Z,0.00
2016-09-28T02:08:13.401Z,0.00
2016-09-28T02:09:13.914Z,0.00
2016-09-28T02:10:14.422Z,0.00
2016-09-28T02:11:15.081Z,0.00
2016-09-28T02:12:15.600Z,0.00
2016-09-28T02:13:15.962Z,0.00
2016-09-28T02:14:16.483Z,0.00
2016-09-28T02:15:16.994Z,0.00
2016-09-28T02:16:17.510Z,0.00
2016-09-28T02:17:18.022Z,0.00
2016-09-28T02:18:18.531Z,0.00
2016-09-28T02:19:19.051Z,0.00
2016-09-28T02:20:19.558Z,0.00
2016-09-28T02:21:20.221Z,0.00
2016-09-28T02:22:20.581Z,0.00
2016-09-28T02:23:21.089Z,0.00
2016-09-28T02:24:21.599Z,0.00
2016-09-28T02:25:22.111Z,0.00
2016-09-28T02:26:22.769Z,0.00
2016-09-28T02:27:23.149Z,0.00
2016-09-28T02:28:23.636Z,0.00
2016-09-28T02:29:24.158Z,0.00
2016-09-28T02:30:24.663Z,0.00
2016-09-28T02:31:25.174Z,0.00
2016-09-28T02:32:25.685Z,0.00
2016-09-28T02:33:26.199Z,0.00
2016-09-28T02:34:26.711Z,0.00
2016-09-28T02:35:28.128Z,0.00
2016-09-28T02:36:27.735Z,0.00
2016-09-28T02:37:28.245Z,0.00
2016-09-28T02:38:28.759Z,0.00
2016-09-28T02:39:29.270Z,0.00
2016-09-28T02:40:29.778Z,0.00
2016-09-28T02:41:30.288Z,0.00
2016-09-28T02:42:30.792Z,0.00
2016-09-28T02:43:31.305Z,0.00
2016-09-28T02:44:31.813Z,0.00
2016-09-28T02:45:32.329Z,0.00
2016-09-28T02:46:32.834Z,0.00
2016-09-28T02:47:33.375Z,0.00
2016-09-28T02:48:33.856Z,0.00
2016-09-28T02:49:34.370Z,0.00
2016-09-28T02:50:34.883Z,0.00
2016-09-28T02:51:35.395Z,0.00
2016-09-28T02:52:35.913Z,0.00
2016-09-28T02:53:36.578Z,0.00
2016-09-28T02:54:37.112Z,0.00
2016-09-28T02:55:37.454Z,0.00
2016-09-28T02:56:37.975Z,0.00
2016-09-28T02:57:38.486Z,0.00
2016-09-28T02:58:39.000Z,0.00
2016-09-28T02:59:39.659Z,0.00
2016-09-28T03:00:40.021Z,0.00
2016-09-28T03:01:40.535Z,0.00
2016-09-28T03:02:41.043Z,0.00
2016-09-28T03:03:41.557Z,0.00
2016-09-28T03:04:42.068Z,0.00
2016-09-28T03:05:43.474Z,0.00
2016-09-28T03:06:43.086Z,0.00
2016-09-28T03:07:43.600Z,0.00
2016-09-28T03:08:44.265Z,0.00
2016-09-28T03:09:44.633Z,0.00
2016-09-28T03:10:45.137Z,0.00
2016-09-28T03:11:45.650Z,0.00
2016-09-28T03:12:46.324Z,0.00
2016-09-28T03:13:46.675Z,0.00
2016-09-28T03:14:47.187Z,0.00
2016-09-28T03:15:47.700Z,0.00
2016-09-28T03:16:48.210Z,0.00
2016-09-28T03:17:48.731Z,0.00
2016-09-28T03:18:49.390Z,0.00
2016-09-28T03:19:49.750Z,0.00
2016-09-28T03:20:50.264Z,0.00
2016-09-28T03:21:50.780Z,0.00
2016-09-28T03:22:51.291Z,0.00
2016-09-28T03:23:51.803Z,0.00
2016-09-28T03:24:52.317Z,0.00
2016-09-28T03:25:52.829Z,0.00
2016-09-28T03:27:54.006Z,0.00
2016-09-28T03:28:54.369Z,0.00
2016-09-28T03:29:54.887Z,0.00
2016-09-28T03:30:55.405Z,0.00
2016-09-28T03:31:55.931Z,0.00
2016-09-28T03:32:56.425Z,0.00
2016-09-28T03:33:56.938Z,0.00
2016-09-28T03:34:57.446Z,0.00
2016-09-28T03:35:58.105Z,0.00
2016-09-28T03:36:58.621Z,0.00
2016-09-28T03:37:59.136Z,0.00
2016-09-28T03:38:59.513Z,0.00
2016-09-28T03:40:00.014Z,0.00
2016-09-28T03:41:00.514Z,0.00
2016-09-28T03:42:01.024Z,0.00
2016-09-28T03:43:01.533Z,0.00
2016-09-28T03:44:02.045Z,0.00
2016-09-28T03:45:02.704Z,0.00
2016-09-28T03:46:03.213Z,0.00
2016-09-28T03:47:03.576Z,0.00
2016-09-28T03:48:04.110Z,0.00
2016-09-28T03:49:04.605Z,0.00
2016-09-28T03:50:05.119Z,0.00
2016-09-28T03:51:05.635Z,0.00
2016-09-28T03:52:06.185Z,0.00
2016-09-28T03:53:06.797Z,0.00
2016-09-28T03:54:07.159Z,0.00
2016-09-28T03:55:07.671Z,0.00
2016-09-28T03:56:08.330Z,0.00
2016-09-28T03:57:08.690Z,0.00
2016-09-28T03:58:09.206Z,0.00
2016-09-28T03:59:09.721Z,0.00
2016-09-28T04:00:10.233Z,0.00
2016-09-28T04:01:10.758Z,0.00
2016-09-28T04:02:11.262Z,0.00
2016-09-28T04:03:11.920Z,0.00
2016-09-28T04:04:12.278Z,0.00
2016-09-28T04:05:12.798Z,0.00
2016-09-28T04:06:13.312Z,0.00
2016-09-28T04:07:13.828Z,0.00
2016-09-28T04:08:14.350Z,0.00
2016-09-28T04:09:14.860Z,0.00
2016-09-28T04:10:15.520Z,0.00
2016-09-28T04:11:17.384Z,0.00
2016-09-28T04:12:16.387Z,0.00
2016-09-28T04:13:16.902Z,0.00
2016-09-28T04:14:17.416Z,0.00
2016-09-28T04:15:17.926Z,0.00
2016-09-28T04:16:18.448Z,0.00
2016-09-28T04:17:18.958Z,0.00
2016-09-28T04:18:19.477Z,0.00
2016-09-28T04:19:20.001Z,0.00
2016-09-28T04:20:20.638Z,0.00
2016-09-28T04:21:21.021Z,0.00
2016-09-28T04:22:21.516Z,0.00
2016-09-28T04:23:22.029Z,0.00
2016-09-28T04:24:22.533Z,0.00
2016-09-28T04:25:23.050Z,0.00
2016-09-28T04:26:23.709Z,0.00
2016-09-28T04:27:24.073Z,0.00
2016-09-28T04:28:24.585Z,0.00
2016-09-28T04:29:25.100Z,0.00
2016-09-28T04:30:25.758Z,0.00
2016-09-28T04:31:26.119Z,0.00
2016-09-28T04:32:26.632Z,0.00
2016-09-28T04:33:27.140Z,0.00
2016-09-28T04:34:27.652Z,0.00
2016-09-28T04:35:28.317Z,0.00
2016-09-28T04:36:28.685Z,0.00
2016-09-28T04:37:29.201Z,0.00
2016-09-28T04:38:29.708Z,0.00
2016-09-28T04:39:30.516Z,0.00
2016-09-28T04:40:30.737Z,0.00
2016-09-28T04:41:32.299Z,0.00
2016-09-28T04:42:31.773Z,0.00
2016-09-28T04:43:32.281Z,0.00
2016-09-28T04:44:32.794Z,0.00
2016-09-28T04:45:33.459Z,0.00
2016-09-28T04:46:33.818Z,0.00
2016-09-28T04:47:34.325Z,0.00
2016-09-28T04:48:34.988Z,0.00
2016-09-28T04:49:35.346Z,0.00
2016-09-28T04:50:35.855Z,0.00
2016-09-28T04:51:36.365Z,0.00
2016-09-28T04:52:36.900Z,0.00
2016-09-28T04:53:37.392Z,0.00
2016-09-28T04:54:38.047Z,0.00
2016-09-28T04:55:38.407Z,0.00
2016-09-28T04:56:40.420Z,0.00
2016-09-28T04:57:39.581Z,0.00
2016-09-28T04:58:39.939Z,0.00
2016-09-28T04:59:40.458Z,0.00
2016-09-28T05:00:40.966Z,0.00
2016-09-28T05:01:41.479Z,0.00
2016-09-28T05:02:41.988Z,0.00
2016-09-28T05:03:42.492Z,0.00
2016-09-28T05:04:43.157Z,0.00
2016-09-28T05:05:43.518Z,0.00
2016-09-28T05:06:44.029Z,0.00
2016-09-28T05:07:44.545Z,0.00
2016-09-28T05:08:45.050Z,0.00
2016-09-28T05:09:45.563Z,0.00
2016-09-28T05:10:46.077Z,0.00
2016-09-28T05:11:46.590Z,0.00
2016-09-28T05:12:47.093Z,0.00
2016-09-28T05:13:47.753Z,0.00
2016-09-28T05:14:48.263Z,0.00
2016-09-28T05:15:48.620Z,0.00
2016-09-28T05:16:49.146Z,0.00
2016-09-28T05:17:49.667Z,0.00
2016-09-28T05:18:50.339Z,0.00
2016-09-28T05:19:50.722Z,0.00
2016-09-28T05:20:51.233Z,0.00
2016-09-28T05:21:51.748Z,0.00
2016-09-28T05:22:52.419Z,0.00
2016-09-28T05:23:52.784Z,0.00
2016-09-28T05:24:53.442Z,0.00
2016-09-28T05:25:53.810Z,0.00
2016-09-28T05:26:54.327Z,0.00
2016-09-28T05:27:54.840Z,0.00
2016-09-28T05:28:55.494Z,0.00
2016-09-28T05:29:55.855Z,0.00
2016-09-28T05:30:56.366Z,0.00
2016-09-28T05:31:56.958Z,0.00
2016-09-28T05:32:57.391Z,0.00
2016-09-28T05:33:57.897Z,0.00
2016-09-28T05:34:58.412Z,0.00
2016-09-28T05:35:58.924Z,0.00
2016-09-28T05:36:59.449Z,0.00
2016-09-28T05:37:59.951Z,0.00
2016-09-28T05:39:00.465Z,0.00
2016-09-28T05:40:00.974Z,0.00
2016-09-28T05:41:01.492Z,0.00
2016-09-28T05:42:01.996Z,0.00
2016-09-28T05:43:02.654Z,0.00
2016-09-28T05:44:03.020Z,0.00
2016-09-28T05:45:03.539Z,0.00
2016-09-28T05:46:04.044Z,0.00
2016-09-28T05:47:04.562Z,0.00
2016-09-28T05:48:05.073Z,0.00
2016-09-28T05:49:05.732Z,1.00
2016-09-28T05:50:06.091Z,1.00
2016-09-28T05:51:06.606Z,1.00
2016-09-28T05:52:07.267Z,1.00
2016-09-28T05:53:07.630Z,0.00
2016-09-28T05:54:08.136Z,0.00
2016-09-28T05:55:08.675Z,1.00
2016-09-28T05:56:09.317Z,1.00
2016-09-28T05:57:09.834Z,1.00
2016-09-28T05:58:10.194Z,1.00
2016-09-28T05:59:10.710Z,1.00
2016-09-28T06:00:11.229Z,1.00
2016-09-28T06:01:11.740Z,1.00
2016-09-28T06:02:12.552Z,1.00
2016-09-28T06:03:12.917Z,1.00
2016-09-28T06:04:13.277Z,2.00
2016-09-28T06:05:13.785Z,2.00
2016-09-28T06:06:14.295Z,2.00
2016-09-28T06:07:14.953Z,2.00
2016-09-28T06:08:15.320Z,2.00
2016-09-28T06:09:15.823Z,2.00
2016-09-28T06:10:16.333Z,2.00
2016-09-28T06:11:17.146Z,1.00
2016-09-28T06:12:17.361Z,1.00
2016-09-28T06:13:17.874Z,1.00
2016-09-28T06:14:18.382Z,1.00
2016-09-28T06:15:18.889Z,1.00
2016-09-28T06:16:19.402Z,1.00
2016-09-28T06:17:19.928Z,1.00
2016-09-28T06:18:20.583Z,1.00
2016-09-28T06:19:20.942Z,1.00
2016-09-28T06:20:21.454Z,1.00
2016-09-28T06:21:21.969Z,2.00
2016-09-28T06:22:22.654Z,2.00
2016-09-28T06:23:23.141Z,2.00
2016-09-28T06:24:23.507Z,3.00
2016-09-28T06:25:24.017Z,3.00
2016-09-28T06:26:24.525Z,4.00
2016-09-28T06:27:25.184Z,4.00
2016-09-28T06:28:25.697Z,4.00
2016-09-28T06:29:26.057Z,4.00
2016-09-28T06:30:26.569Z,4.00
2016-09-28T06:31:27.099Z,4.00
2016-09-28T06:32:29.399Z,4.00
2016-09-28T06:33:28.104Z,4.00
2016-09-28T06:34:28.613Z,5.00
2016-09-28T06:35:29.133Z,5.00
2016-09-28T06:36:29.646Z,5.00
2016-09-28T06:37:30.163Z,4.00
2016-09-28T06:38:30.681Z,4.00
2016-09-28T06:39:31.195Z,4.00
2016-09-28T06:40:31.709Z,5.00
2016-09-28T06:41:32.218Z,6.00
2016-09-28T06:42:32.758Z,6.00
2016-09-28T06:43:33.241Z,6.00
2016-09-28T06:44:33.753Z,6.00
2016-09-28T06:45:34.270Z,6.00
2016-09-28T06:46:34.928Z,6.00
2016-09-28T06:47:35.293Z,6.00
2016-09-28T06:48:35.826Z,7.00
2016-09-28T06:49:36.341Z,7.00
2016-09-28T06:50:36.980Z,7.00
2016-09-28T06:51:37.343Z,7.00
2016-09-28T06:52:37.849Z,7.00
2016-09-28T06:53:38.364Z,7.00
2016-09-28T06:54:38.871Z,7.00
2016-09-28T06:55:39.536Z,7.00
2016-09-28T06:56:39.895Z,6.00
2016-09-28T06:57:40.414Z,6.00
2016-09-28T06:58:40.923Z,7.00
2016-09-28T06:59:41.585Z,7.00
2016-09-28T07:00:41.946Z,7.00
2016-09-28T07:01:42.456Z,7.00
2016-09-28T07:02:44.173Z,6.00
2016-09-28T07:03:43.630Z,5.00
2016-09-28T07:04:44.148Z,5.00
2016-09-28T07:05:44.660Z,5.00
2016-09-28T07:06:45.026Z,5.00
2016-09-28T07:07:45.539Z,6.00
2016-09-28T07:08:46.047Z,7.00
2016-09-28T07:09:46.558Z,7.00
2016-09-28T07:10:47.075Z,7.00
2016-09-28T07:11:47.590Z,7.00
2016-09-28T07:12:48.116Z,7.00
2016-09-28T07:13:48.624Z,7.00
2016-09-28T07:14:49.290Z,7.00
2016-09-28T07:15:49.655Z,7.00
2016-09-28T07:16:50.179Z,7.00
2016-09-28T07:17:50.686Z,7.00
2016-09-28T07:18:51.214Z,7.00
2016-09-28T07:19:51.712Z,7.00
2016-09-28T07:20:52.222Z,7.00
2016-09-28T07:21:52.736Z,7.00
2016-09-28T07:22:53.246Z,7.00
2016-09-28T07:23:53.757Z,7.00
2016-09-28T07:24:54.422Z,7.00
2016-09-28T07:25:54.773Z,7.00
2016-09-28T07:26:55.290Z,8.00
2016-09-28T07:27:55.796Z,8.00
2016-09-28T07:28:56.309Z,8.00
2016-09-28T07:29:56.975Z,9.00
2016-09-28T07:30:57.358Z,9.00
2016-09-28T07:31:57.852Z,10.00
2016-09-28T07:32:58.357Z,10.00
2016-09-28T07:33:59.018Z,11.00
2016-09-28T07:34:59.528Z,11.00
2016-09-28T07:35:59.888Z,11.00
2016-09-28T07:37:00.401Z,11.00
2016-09-28T07:38:00.913Z,10.00
2016-09-28T07:39:01.427Z,10.00
2016-09-28T07:40:01.948Z,10.00
2016-09-28T07:41:02.452Z,10.00
2016-09-28T07:42:02.962Z,10.00
2016-09-28T07:43:03.472Z,10.00
2016-09-28T07:44:03.988Z,10.00
2016-09-28T07:45:04.648Z,10.00
2016-09-28T07:46:05.007Z,10.00
2016-09-28T07:47:05.519Z,10.00
2016-09-28T07:48:06.031Z,10.00
2016-09-28T07:49:06.694Z,9.00
2016-09-28T07:50:07.061Z,9.00
2016-09-28T07:51:07.728Z,8.00
2016-09-28T07:52:08.092Z,9.00
2016-09-28T07:53:08.612Z,9.00
2016-09-28T07:54:09.117Z,9.00
2016-09-28T07:55:09.628Z,9.00
2016-09-28T07:56:10.142Z,8.00
2016-09-28T07:57:10.656Z,8.00
2016-09-28T07:58:11.171Z,8.00
2016-09-28T07:59:11.684Z,8.00
2016-09-28T08:00:12.202Z,8.00
2016-09-28T08:01:12.715Z,8.00
2016-09-28T08:02:13.226Z,8.00
2016-09-28T08:03:13.739Z,8.00
2016-09-28T08:04:14.256Z,8.00
2016-09-28T08:05:14.767Z,9.00
2016-09-28T08:06:15.290Z,9.00
2016-09-28T08:07:15.789Z,9.00
2016-09-28T08:08:18.105Z,10.00
2016-09-28T08:09:16.967Z,11.00
2016-09-28T08:10:17.505Z,12.00
2016-09-28T08:11:17.988Z,13.00
2016-09-28T08:12:18.353Z,13.00
2016-09-28T08:13:18.858Z,13.00
2016-09-28T08:14:19.388Z,11.00
2016-09-28T08:15:19.879Z,9.00
2016-09-28T08:16:20.391Z,8.00
2016-09-28T08:17:20.926Z,9.00
2016-09-28T08:18:21.564Z,10.00
2016-09-28T08:19:21.927Z,10.00
2016-09-28T08:20:22.591Z,12.00
2016-09-28T08:21:23.106Z,13.00
2016-09-28T08:22:23.464Z,14.00
2016-09-28T08:23:23.981Z,15.00
2016-09-28T08:24:24.646Z,20.00
2016-09-28T08:25:25.166Z,21.00
2016-09-28T08:26:25.682Z,28.00
2016-09-28T08:27:26.052Z,32.00
2016-09-28T08:28:26.563Z,22.00
2016-09-28T08:29:27.080Z,19.00
2016-09-28T08:30:27.752Z,28.00
2016-09-28T08:31:28.114Z,16.00
2016-09-28T08:32:28.629Z,15.00
2016-09-28T08:33:29.142Z,18.00
2016-09-28T08:34:29.657Z,17.00
2016-09-28T08:35:30.178Z,36.00
2016-09-28T08:36:30.684Z,40.00
2016-09-28T08:37:31.196Z,40.00
2016-09-28T08:38:31.858Z,38.00
2016-09-28T08:39:32.223Z,26.00
2016-09-28T08:40:32.734Z,23.00
2016-09-28T08:41:33.268Z,17.00
2016-09-28T08:42:33.753Z,16.00
2016-09-28T08:43:34.418Z,14.00
2016-09-28T08:44:34.783Z,13.00
2016-09-28T08:45:35.294Z,13.00
2016-09-28T08:46:35.804Z,13.00
2016-09-28T08:47:36.311Z,13.00
2016-09-28T08:48:36.833Z,12.00
2016-09-28T08:49:37.338Z,14.00
2016-09-28T08:50:37.850Z,15.00
2016-09-28T08:51:38.372Z,15.00
2016-09-28T08:52:38.883Z,18.00
2016-09-28T08:53:39.542Z,21.00
2016-09-28T08:54:39.912Z,21.00
2016-09-28T08:55:40.416Z,19.00
2016-09-28T08:56:40.926Z,12.00
2016-09-28T08:57:41.436Z,11.00
2016-09-28T08:58:41.949Z,9.00
2016-09-28T08:59:42.608Z,9.00
2016-09-28T09:00:42.971Z,8.00
2016-09-28T09:01:43.480Z,9.00
2016-09-28T09:02:43.993Z,9.00
2016-09-28T09:03:44.510Z,10.00
2016-09-28T09:04:45.029Z,10.00
2016-09-28T09:05:45.541Z,11.00
2016-09-28T09:06:46.058Z,11.00
2016-09-28T09:07:46.574Z,11.00
2016-09-28T09:08:47.090Z,11.00
2016-09-28T09:09:47.755Z,11.00
2016-09-28T09:10:48.114Z,10.00
2016-09-28T09:11:48.624Z,11.00
2016-09-28T09:12:49.137Z,11.00
2016-09-28T09:13:49.654Z,12.00
2016-09-28T09:14:50.162Z,12.00
2016-09-28T09:15:50.665Z,11.00
2016-09-28T09:16:51.184Z,13.00
2016-09-28T09:17:51.847Z,13.00
2016-09-28T09:19:44.032Z,13.00
2016-09-28T09:20:53.235Z,12.00
2016-09-28T09:21:53.755Z,13.00
2016-09-28T09:22:54.274Z,14.00
2016-09-28T09:23:54.778Z,15.00
2016-09-28T09:24:55.295Z,14.00
2016-09-28T09:25:55.807Z,14.00
2016-09-28T09:26:56.462Z,14.00
2016-09-28T09:27:56.978Z,15.00
2016-09-28T09:28:57.337Z,15.00
2016-09-28T09:29:57.851Z,15.00
2016-09-28T09:30:58.364Z,14.00
2016-09-28T09:31:58.871Z,16.00
2016-09-28T09:32:59.401Z,16.00
2016-09-28T09:33:59.892Z,16.00
2016-09-28T09:35:00.410Z,15.00
2016-09-28T09:36:00.938Z,16.00
2016-09-28T09:37:01.428Z,16.00
2016-09-28T09:38:01.936Z,15.00
2016-09-28T09:39:02.448Z,14.00
2016-09-28T09:40:02.960Z,13.00
2016-09-28T09:41:03.474Z,13.00
2016-09-28T09:42:04.008Z,13.00
2016-09-28T09:43:04.650Z,13.00
2016-09-28T09:44:05.041Z,15.00
2016-09-28T09:45:05.540Z,15.00
2016-09-28T09:46:06.233Z,15.00
2016-09-28T09:47:06.576Z,15.00
2016-09-28T09:48:07.245Z,14.00
2016-09-28T09:49:07.600Z,15.00
2016-09-28T09:50:08.113Z,16.00
2016-09-28T09:51:08.627Z,15.00
2016-09-28T09:52:09.137Z,13.00
2016-09-28T09:53:09.654Z,13.00
2016-09-28T09:54:10.159Z,12.00
2016-09-28T09:55:10.673Z,13.00
2016-09-28T09:56:11.182Z,15.00
2016-09-28T09:57:11.693Z,15.00
2016-09-28T09:58:12.201Z,15.00
2016-09-28T09:59:12.871Z,16.00
2016-09-28T10:00:13.227Z,16.00
2016-09-28T10:01:13.747Z,16.00
2016-09-28T10:02:14.254Z,15.00
2016-09-28T10:03:14.913Z,14.00
2016-09-28T10:04:15.280Z,14.00
2016-09-28T10:05:15.796Z,14.00
2016-09-28T10:06:16.314Z,14.00
2016-09-28T10:07:16.824Z,14.00
2016-09-28T10:08:17.331Z,14.00
2016-09-28T10:09:17.845Z,13.00
2016-09-28T10:10:18.359Z,13.00
2016-09-28T10:11:18.873Z,12.00
2016-09-28T10:12:19.381Z,13.00
2016-09-28T10:13:19.895Z,14.00
2016-09-28T10:14:21.159Z,14.00
2016-09-28T10:15:20.924Z,13.00
2016-09-28T10:16:21.588Z,12.00
2016-09-28T10:17:21.956Z,11.00
2016-09-28T10:18:22.461Z,11.00
2016-09-28T10:19:23.125Z,11.00
2016-09-28T10:20:23.496Z,12.00
2016-09-28T10:21:24.012Z,12.00
2016-09-28T10:22:24.523Z,13.00
2016-09-28T10:23:25.038Z,13.00
2016-09-28T10:24:25.702Z,13.00
2016-09-28T10:25:26.065Z,12.00
2016-09-28T10:26:26.573Z,12.00
2016-09-28T10:27:27.087Z,13.00
2016-09-28T10:28:27.601Z,13.00
2016-09-28T10:29:28.134Z,12.00
2016-09-28T10:30:28.629Z,12.00
2016-09-28T10:31:29.136Z,12.00
2016-09-28T10:32:30.700Z,13.00
2016-09-28T10:33:30.311Z,13.00
2016-09-28T10:34:30.679Z,12.00
2016-09-28T10:35:31.180Z,11.00
2016-09-28T10:36:31.694Z,12.00
2016-09-28T10:37:32.199Z,12.00
2016-09-28T10:38:32.713Z,12.00
2016-09-28T10:39:33.227Z,12.00
2016-09-28T10:40:33.744Z,12.00
2016-09-28T10:41:34.248Z,12.00
2016-09-28T10:42:34.757Z,12.00
2016-09-28T10:43:35.278Z,12.00
2016-09-28T10:44:35.779Z,11.00
2016-09-28T10:45:36.290Z,11.00
2016-09-28T10:46:36.797Z,11.00
2016-09-28T10:47:37.309Z,10.00
2016-09-28T10:48:37.835Z,11.00
2016-09-28T10:49:38.331Z,12.00
2016-09-28T10:50:38.840Z,13.00
2016-09-28T10:51:39.659Z,13.00
2016-09-28T10:52:39.865Z,14.00
2016-09-28T10:53:40.406Z,14.00
2016-09-28T10:54:40.890Z,14.00
2016-09-28T10:55:41.401Z,14.00
2016-09-28T10:56:41.914Z,15.00
2016-09-28T10:57:42.452Z,16.00
2016-09-28T10:58:42.985Z,16.00
2016-09-28T10:59:43.473Z,15.00
2016-09-28T11:00:43.978Z,14.00
2016-09-28T11:01:44.493Z,14.00
2016-09-28T11:02:44.999Z,14.00
2016-09-28T11:03:45.508Z,15.00
2016-09-28T11:04:46.021Z,14.00
2016-09-28T11:05:46.538Z,13.00
2016-09-28T11:06:47.246Z,12.00
2016-09-28T11:07:47.704Z,11.00
2016-09-28T11:08:48.077Z,11.00
2016-09-28T11:09:48.584Z,11.00
2016-09-28T11:10:49.090Z,11.00
2016-09-28T11:11:49.758Z,11.00
2016-09-28T11:12:50.119Z,10.00
2016-09-28T11:13:50.629Z,10.00
2016-09-28T11:14:51.167Z,10.00
2016-09-28T11:15:51.653Z,10.00
2016-09-28T11:16:52.314Z,10.00
2016-09-28T11:17:52.675Z,10.00
2016-09-28T11:18:53.183Z,10.00
2016-09-28T11:19:53.698Z,10.00
2016-09-28T11:20:54.212Z,9.00
2016-09-28T11:21:54.725Z,9.00
2016-09-28T11:22:55.227Z,10.00
2016-09-28T11:23:55.743Z,10.00
2016-09-28T11:24:56.255Z,10.00
2016-09-28T11:25:56.769Z,10.00
2016-09-28T11:26:57.276Z,10.00
2016-09-28T11:27:57.789Z,10.00
2016-09-28T11:28:58.298Z,10.00
2016-09-28T11:29:58.967Z,11.00
2016-09-28T11:30:59.325Z,12.00
2016-09-28T11:31:59.840Z,12.00
2016-09-28T11:33:00.365Z,12.00
2016-09-28T11:34:00.876Z,12.00
2016-09-28T11:35:01.390Z,12.00
2016-09-28T11:36:02.068Z,12.00
2016-09-28T11:37:02.424Z,12.00
2016-09-28T11:38:02.941Z,12.00
2016-09-28T11:39:03.460Z,13.00
2016-09-28T11:40:03.969Z,13.00
2016-09-28T11:41:04.479Z,12.00
2016-09-28T11:42:04.992Z,12.00
2016-09-28T11:43:05.504Z,14.00
2016-09-28T11:44:06.011Z,16.00
2016-09-28T11:45:06.823Z,17.00
2016-09-28T11:46:07.184Z,17.00
2016-09-28T11:47:07.542Z,18.00
2016-09-28T11:48:08.059Z,18.00
2016-09-28T11:49:08.572Z,18.00
2016-09-28T11:50:10.435Z,19.00
2016-09-28T11:51:09.748Z,20.00
2016-09-28T11:52:10.262Z,21.00
2016-09-28T11:53:10.630Z,21.00
2016-09-28T11:54:11.159Z,22.00
2016-09-28T11:55:11.653Z,38.00
2016-09-28T11:56:12.170Z,39.00
2016-09-28T11:57:12.681Z,28.00
2016-09-28T11:58:13.195Z,20.00
2016-09-28T11:59:13.712Z,22.00
2016-09-28T12:00:14.222Z,23.00
2016-09-28T12:01:14.888Z,24.00
2016-09-28T12:02:15.250Z,24.00
2016-09-28T12:03:15.763Z,23.00
2016-09-28T12:04:16.281Z,23.00
2016-09-28T12:05:16.783Z,27.00
2016-09-28T12:06:17.296Z,28.00
2016-09-28T12:07:17.804Z,28.00
2016-09-28T12:08:18.316Z,27.00
2016-09-28T12:09:18.844Z,35.00
2016-09-28T12:10:19.341Z,47.00
2016-09-28T12:11:20.004Z,28.00
2016-09-28T12:12:20.371Z,27.00
2016-09-28T12:13:21.039Z,28.00
2016-09-28T12:14:21.578Z,39.00
2016-09-28T12:15:21.917Z,42.00
2016-09-28T12:16:22.430Z,42.00
2016-09-28T12:17:22.952Z,47.00
2016-09-28T12:18:23.487Z,53.00
2016-09-28T12:19:24.118Z,52.00
2016-09-28T12:20:24.477Z,43.00
2016-09-28T12:21:25.007Z,41.00
2016-09-28T12:22:25.654Z,41.00
2016-09-28T12:23:26.011Z,44.00
2016-09-28T12:24:26.523Z,55.00
2016-09-28T12:25:27.028Z,55.00
2016-09-28T12:26:27.540Z,62.00
2016-09-28T12:27:28.050Z,63.00
2016-09-28T12:28:28.708Z,45.00
2016-09-28T12:29:29.069Z,31.00
2016-09-28T12:30:29.733Z,28.00
2016-09-28T12:31:30.093Z,26.00
2016-09-28T12:32:30.605Z,25.00
2016-09-28T12:33:31.117Z,23.00
2016-09-28T12:34:31.626Z,21.00
2016-09-28T12:35:32.289Z,20.00
2016-09-28T12:36:32.648Z,18.00
2016-09-28T12:37:33.159Z,18.00
2016-09-28T12:38:33.704Z,18.00
2016-09-28T12:39:34.340Z,18.00
2016-09-28T12:40:34.731Z,19.00
2016-09-28T12:41:35.219Z,21.00
2016-09-28T12:42:35.731Z,22.00
2016-09-28T12:43:36.388Z,24.00
2016-09-28T12:44:36.753Z,28.00
2016-09-28T12:45:37.263Z,35.00
2016-09-28T12:46:37.774Z,36.00
2016-09-28T12:47:38.282Z,33.00
2016-09-28T12:48:38.801Z,31.00
2016-09-28T12:49:39.315Z,35.00
2016-09-28T12:50:39.829Z,36.00
2016-09-28T12:51:40.342Z,34.00
2016-09-28T12:52:40.863Z,35.00
2016-09-28T12:53:41.374Z,35.00
2016-09-28T12:54:42.050Z,34.00
2016-09-28T12:55:42.397Z,32.00
2016-09-28T12:56:42.911Z,31.00
2016-09-28T12:57:43.421Z,31.00
2016-09-28T12:58:43.934Z,31.00
2016-09-28T12:59:44.446Z,32.00
2016-09-28T13:00:45.110Z,31.00
2016-09-28T13:01:45.617Z,31.00
2016-09-28T13:02:45.980Z,29.00
2016-09-28T13:03:46.499Z,30.00
2016-09-28T13:04:46.999Z,27.00
2016-09-28T13:05:47.512Z,28.00
2016-09-28T13:06:48.029Z,30.00
2016-09-28T13:07:48.540Z,30.00
2016-09-28T13:08:49.052Z,27.00
2016-09-28T13:09:49.581Z,27.00
2016-09-28T13:10:50.078Z,27.00
2016-09-28T13:11:50.589Z,29.00
2016-09-28T13:12:51.105Z,28.00
2016-09-28T13:13:51.763Z,30.00
2016-09-28T13:14:52.124Z,37.00
2016-09-28T13:15:52.635Z,41.00
2016-09-28T13:16:53.144Z,40.00